createdAt,value
2019-02-16T00:01:43.623Z,32.75
2019-02-16T00:04:12.638Z,32.77
2019-02-16T00:06:41.470Z,32.95
2019-02-16T00:09:10.487Z,32.99
2019-02-16T00:11:39.476Z,33.04
2019-02-16T00:14:08.475Z,33.06
2019-02-16T00:16:37.465Z,33.08
2019-02-16T00:19:06.509Z,33.27
2019-02-16T00:21:35.673Z,33.48
2019-02-16T00:24:04.671Z,33.47
2019-02-16T00:26:33.604Z,33.47
2019-02-16T00:29:02.585Z,33.52
2019-02-16T00:31:31.576Z,33.56
2019-02-16T00:34:00.528Z,33.68
2019-02-16T00:36:29.509Z,33.71
2019-02-16T00:38:58.718Z,33.88
2019-02-16T00:41:27.709Z,33.95
2019-02-16T00:43:56.717Z,34.03
2019-02-16T00:46:25.554Z,34.00
2019-02-16T00:48:54.596Z,34.01
2019-02-16T00:51:23.519Z,34.13
2019-02-16T00:53:52.563Z,34.26
2019-02-16T00:56:21.663Z,34.17
2019-02-16T00:58:50.690Z,34.29
2019-02-16T01:01:19.611Z,34.33
2019-02-16T01:03:48.579Z,34.32
2019-02-16T01:06:17.667Z,34.34
2019-02-16T01:08:46.666Z,34.48
2019-02-16T01:11:15.686Z,34.41
2019-02-16T01:13:44.703Z,34.46
2019-02-16T01:16:13.705Z,34.59
2019-02-16T01:18:42.728Z,34.46
2019-02-16T01:21:11.715Z,34.49
2019-02-16T01:23:40.683Z,34.54
2019-02-16T01:26:09.698Z,34.67
2019-02-16T01:28:38.606Z,34.74
2019-02-16T01:31:07.541Z,34.76
2019-02-16T01:33:36.544Z,34.77
2019-02-16T01:36:05.528Z,34.68
2019-02-16T01:38:34.600Z,34.79
2019-02-16T01:41:03.597Z,34.89
2019-02-16T01:43:35.529Z,34.91
2019-02-16T01:46:04.476Z,35.01
2019-02-16T01:48:33.408Z,34.97
2019-02-16T01:51:02.481Z,35.08
2019-02-16T01:53:31.501Z,35.04
2019-02-16T01:56:00.537Z,34.91
2019-02-16T01:58:29.552Z,35.02
2019-02-16T02:00:58.654Z,35.02
2019-02-16T02:03:27.679Z,35.18
2019-02-16T02:05:56.719Z,35.15
2019-02-16T02:08:25.749Z,35.15
2019-02-16T02:10:54.813Z,35.24
2019-02-16T02:13:23.825Z,35.16
2019-02-16T02:15:52.899Z,35.18
2019-02-16T02:18:21.915Z,35.12
2019-02-16T02:20:50.997Z,35.11
2019-02-16T02:23:20.052Z,35.08
2019-02-16T02:25:49.105Z,35.15
2019-02-16T02:28:18.127Z,35.12
2019-02-16T02:30:47.335Z,35.25
2019-02-16T02:33:16.428Z,35.32
2019-02-16T02:35:45.497Z,35.35
2019-02-16T02:38:14.552Z,35.45
2019-02-16T02:40:43.615Z,35.47
2019-02-16T02:43:12.674Z,35.59
2019-02-16T02:45:41.772Z,35.55
2019-02-16T02:48:10.866Z,35.48
2019-02-16T02:50:39.900Z,35.50
2019-02-16T02:53:08.971Z,35.43
2019-02-16T02:55:38.064Z,35.55
2019-02-16T02:58:07.091Z,35.59
2019-02-16T03:00:36.168Z,35.54
2019-02-16T03:03:05.237Z,35.46
2019-02-16T08:09:24.525Z,24.50
2019-02-16T08:12:11.371Z,23.66
2019-02-16T08:14:56.520Z,22.85
2019-02-16T08:17:44.305Z,21.90
2019-02-16T08:20:39.562Z,20.72
2019-02-16T08:23:20.592Z,20.42
2019-02-16T08:26:11.444Z,19.85
2019-02-16T08:28:54.761Z,19.38
2019-02-16T08:31:42.778Z,19.09
2019-02-16T08:34:37.281Z,18.66
2019-02-16T08:37:19.780Z,17.97
2019-02-16T08:40:02.543Z,17.51
2019-02-16T08:42:47.187Z,17.21
2019-02-16T08:45:33.264Z,16.64
2019-02-16T08:48:11.387Z,16.06
2019-02-16T08:51:02.056Z,15.53
2019-02-16T08:53:50.425Z,14.78
2019-02-16T08:56:38.419Z,14.41
2019-02-16T08:59:38.680Z,13.72
2019-02-16T09:02:17.650Z,13.71
2019-02-16T09:04:53.458Z,13.27
2019-02-16T09:07:31.136Z,12.88
2019-02-16T09:10:28.535Z,12.62
2019-02-16T09:13:22.756Z,12.33
2019-02-16T09:16:11.921Z,12.06
2019-02-16T09:19:00.820Z,11.55
2019-02-16T09:21:47.623Z,11.26
2019-02-16T09:24:44.738Z,10.84
2019-02-16T09:27:35.955Z,10.63
2019-02-16T09:30:25.332Z,10.33
2019-02-16T09:33:13.578Z,10.12
2019-02-16T09:35:51.342Z,9.56
2019-02-16T09:38:34.802Z,9.30
2019-02-16T09:41:15.491Z,9.18
2019-02-16T09:44:06.693Z,8.80
2019-02-16T09:46:49.600Z,8.68
2019-02-16T09:49:36.874Z,8.58
2019-02-16T09:52:23.314Z,8.34
2019-02-16T09:55:11.394Z,8.15
2019-02-16T09:57:56.486Z,7.85
2019-02-16T10:00:37.646Z,7.63
2019-02-16T10:03:28.732Z,7.66
2019-02-16T10:06:35.324Z,7.46
2019-02-16T10:09:12.843Z,7.38
2019-02-16T10:11:46.397Z,7.31
2019-02-16T10:14:32.932Z,7.08
2019-02-16T10:17:27.009Z,7.02
2019-02-16T10:20:26.937Z,6.79
2019-02-16T10:23:37.611Z,6.63
2019-02-16T10:26:34.840Z,6.39
2019-02-16T10:29:21.619Z,6.23
2019-02-16T10:31:59.618Z,6.05
2019-02-16T10:34:56.961Z,6.17
2019-02-16T10:37:33.620Z,5.81
2019-02-16T10:40:14.785Z,5.87
2019-02-16T10:43:01.140Z,5.87
2019-02-16T10:45:47.930Z,5.68
2019-02-16T10:48:37.414Z,5.48
2019-02-16T10:51:19.058Z,5.32
2019-02-16T10:54:26.745Z,5.36
2019-02-16T10:57:00.762Z,5.34
2019-02-16T10:59:51.592Z,5.41
2019-02-16T11:02:54.658Z,5.48
2019-02-16T11:05:42.821Z,5.35
2019-02-16T11:08:37.248Z,5.21
2019-02-16T11:11:34.391Z,5.19
2019-02-16T11:14:37.505Z,5.05
2019-02-16T11:17:26.261Z,5.10
2019-02-16T11:20:07.355Z,4.81
2019-02-16T11:22:44.661Z,4.69
2019-02-16T11:25:22.967Z,4.65
2019-02-16T11:28:14.187Z,4.69
2019-02-16T11:31:06.233Z,4.71
2019-02-16T11:33:50.430Z,4.72
2019-02-16T11:36:26.378Z,4.61
2019-02-16T11:39:14.669Z,4.71
2019-02-16T11:42:08.972Z,4.64
2019-02-16T11:45:08.874Z,4.56
2019-02-16T11:47:55.349Z,4.61
2019-02-16T11:50:49.510Z,4.61
2019-02-16T11:53:36.079Z,4.47
2019-02-16T11:56:16.428Z,4.53
2019-02-16T16:11:00.299Z,24.69
2019-02-16T16:13:36.408Z,24.80
2019-02-16T16:16:39.414Z,25.03
2019-02-16T16:19:45.147Z,25.15
2019-02-16T16:22:34.782Z,25.30
2019-02-16T16:25:29.259Z,25.46
2019-02-16T16:28:17.385Z,25.66
2019-02-16T16:31:08.542Z,25.92
2019-02-16T16:34:06.126Z,26.12
2019-02-16T16:36:53.865Z,26.48
2019-02-16T16:39:40.331Z,26.85
2019-02-16T17:35:02.590Z,32.02
2019-02-16T17:37:46.835Z,32.21
2019-02-16T17:40:25.171Z,32.33
2019-02-16T17:43:11.766Z,32.36
2019-02-16T17:46:02.785Z,32.48
2019-02-16T17:48:51.117Z,32.65
2019-02-16T17:51:32.950Z,32.85
2019-02-16T17:54:19.371Z,33.16
2019-02-16T17:57:13.496Z,33.47
2019-02-16T18:00:01.443Z,33.76
2019-02-16T18:02:47.896Z,33.95
2019-02-16T18:05:40.548Z,34.22
2019-02-16T18:08:32.988Z,34.13
2019-02-16T18:11:30.383Z,34.23
2019-02-16T18:14:24.529Z,34.38
2019-02-16T18:17:12.497Z,34.75
2019-02-16T18:19:54.662Z,35.00
2019-02-16T18:22:41.782Z,34.94
2019-02-16T18:25:38.850Z,34.94
2019-02-16T18:28:25.370Z,35.11
2019-02-16T18:31:15.531Z,35.24
2019-02-16T18:33:56.256Z,35.48
2019-02-16T18:37:02.649Z,35.53
2019-02-16T18:39:56.606Z,35.59
2019-02-16T18:42:45.895Z,35.83
2019-02-16T18:45:39.810Z,36.36
2019-02-16T18:48:18.916Z,36.82
2019-02-16T18:51:01.752Z,38.02
2019-02-16T18:53:52.744Z,37.84
2019-02-16T18:56:52.945Z,37.95
2019-02-16T18:59:59.179Z,37.88
2019-02-16T19:02:50.061Z,38.37
2019-02-16T19:05:53.466Z,38.23
2019-02-16T19:08:47.677Z,38.63
2019-02-16T19:11:44.655Z,38.24
2019-02-16T21:10:00.502Z,42.58
2019-02-16T21:12:51.213Z,42.66
2019-02-16T21:15:34.459Z,42.51
2019-02-16T21:18:28.752Z,42.64
2019-02-16T21:21:17.097Z,42.76
2019-02-16T21:24:03.865Z,42.79
2019-02-16T21:26:50.338Z,42.81
2019-02-16T21:29:35.465Z,43.00
2019-02-16T21:32:11.439Z,43.07
2019-02-16T21:34:58.268Z,43.13
2019-02-16T21:37:45.032Z,43.27
2019-02-16T21:40:31.539Z,43.48
2019-02-16T21:43:28.502Z,43.40
2019-02-16T21:46:15.846Z,43.35
2019-02-16T21:49:06.962Z,43.50
2019-02-16T21:51:57.900Z,43.49
2019-02-16T21:54:40.675Z,43.62
2019-02-16T21:57:28.715Z,43.57
2019-02-16T22:00:15.271Z,43.58
2019-02-16T22:02:58.335Z,43.56
2019-02-16T22:05:39.211Z,43.68
2019-02-16T22:08:18.508Z,43.77
2019-02-16T22:10:55.490Z,43.85
2019-02-16T22:13:24.721Z,43.84
2019-02-16T22:15:53.885Z,44.07
2019-02-16T22:18:23.012Z,44.22
2019-02-16T22:20:52.212Z,44.29
2019-02-16T22:23:21.303Z,44.31
2019-02-16T22:25:50.456Z,44.34
2019-02-16T22:28:30.181Z,44.52
2019-02-16T22:30:50.464Z,44.64
2019-02-16T22:33:19.569Z,44.74
2019-02-16T22:35:48.613Z,44.88
2019-02-16T22:38:17.845Z,44.91
2019-02-16T22:40:46.941Z,45.00
2019-02-16T22:43:16.058Z,44.95
2019-02-16T22:45:45.180Z,44.96
2019-02-16T22:48:14.814Z,45.02
2019-02-16T22:50:44.038Z,45.04
2019-02-16T22:53:13.243Z,45.19
2019-02-16T22:55:42.499Z,45.23
2019-02-16T22:58:11.670Z,45.20
2019-02-16T23:00:44.412Z,45.30
2019-02-16T23:03:14.011Z,45.34
2019-02-16T23:05:43.146Z,45.39
2019-02-16T23:08:12.328Z,45.42
2019-02-16T23:10:41.446Z,45.52
2019-02-16T23:13:10.666Z,45.51
2019-02-16T23:15:39.809Z,45.60
2019-02-16T23:18:09.017Z,45.57
2019-02-16T23:20:38.129Z,45.62
2019-02-16T23:23:08.123Z,45.66
2019-02-16T23:25:37.179Z,45.78
2019-02-16T23:28:06.354Z,45.82
2019-02-16T23:30:35.460Z,45.87
2019-02-16T23:33:04.581Z,45.90
2019-02-16T23:35:33.647Z,46.16
2019-02-16T23:38:02.794Z,46.20
2019-02-16T23:40:31.857Z,46.28
2019-02-16T23:43:01.046Z,46.31
2019-02-16T23:45:30.097Z,46.44
2019-02-16T23:47:59.191Z,46.43
2019-02-16T23:50:28.308Z,46.49
2019-02-16T23:52:57.393Z,46.54
2019-02-16T23:55:26.519Z,46.65
2019-02-16T23:57:55.644Z,46.77
